Dades meteomassalio
Diari Summary for Juliol 22, 2017 Units:  English    Metric   Both
« Previous Day
Next Day »
Diari Semanal Mensual Anual Personalitzat
  Maxima: Minima: Mijana:
Temperatura: TemperatureC °F 19.1 °F 24.6 °F
Rosada: DewpointC °F 17.1 °F 19.3 °F
Humitat: Humidity % 51 % 73 %
Velocitat del vent: WindSpeedKMH mph 0.0 mph 7.7 mph
Racha vent: WindSpeedGustKMH mph - -
Vent:- - SE
Pressio: PressurehPa in 1010.7 in -
Pluja: 1.3 in    
Historical Graphs
 
 
Tabular Data for Juliol 22, 2017
Time Temperature Dew Point Pressure Wind Wind Speed Wind Gust Humidity Rainfall Rate (Hourly) solar Conditions
TemperatureC °F DewpointC °F PressurehPa in Calm     Humidity % HourlyPrecipMM in SolarRadiationWatts/m^2 W/m2 Conditions
00:00 22.5 °F 18.4 °F 1010.7 in SSE 11.1 mph 11.1 mph 78 % 0.0 in 0.0 W/m2 RA
00:05 22.5 °F 18.4 °F 1010.7 in SE 9.3 mph 9.3 mph 78 % 0.0 in 0.0 W/m2 CLR
00:10 22.4 °F 18.4 °F 1010.7 in East 7.4 mph 7.4 mph 78 % 0.0 in 0.0 W/m2 CLR
00:15 22.4 °F 18.4 °F 1010.7 in Calm     78 % 0.0 in 0.0 W/m2 CLR
00:20 22.2 °F 18.4 °F 1010.7 in Calm     79 % 0.0 in 0.0 W/m2 CLR
00:25 22.1 °F 18.3 °F 1010.7 in Calm     79 % 0.0 in 0.0 W/m2 CLR
00:30 22.1 °F 18.4 °F 1011.1 in Calm     80 % 0.0 in 0.0 W/m2 CLR
00:36 21.9 °F 18.3 °F 1011.1 in Calm     80 % 0.0 in 0.0 W/m2 CLR
00:41 21.7 °F 18.3 °F 1011.1 in Calm     81 % 0.0 in 0.0 W/m2 CLR
00:46 21.5 °F 18.3 °F 1011.1 in NE 1.9 mph   82 % 0.0 in 0.0 W/m2 CLR
00:51 21.4 °F 18.2 °F 1011.1 in Calm     82 % 0.0 in 0.0 W/m2 CLR
00:56 21.3 °F 18.3 °F 1011.1 in Calm     83 % 0.0 in 0.0 W/m2 CLR
01:01 21.3 °F 18.3 °F 1010.7 in Calm     83 % 0.0 in 0.0 W/m2 CLR
01:06 21.2 °F 18.2 °F 1010.7 in Calm     83 % 0.0 in 0.0 W/m2 CLR
01:11 21.1 °F 18.1 °F 1010.7 in Calm     83 % 0.0 in 0.0 W/m2 CLR
01:16 21.0 °F 18.2 °F 1011.1 in Calm     84 % 0.0 in 0.0 W/m2 CLR
01:21 21.1 °F 18.2 °F 1011.1 in Calm   0.2 mph 84 % 0.0 in 0.0 W/m2 CLR
01:26 21.1 °F 18.3 °F 1011.1 in Calm     84 % 0.0 in 0.0 W/m2 CLR
01:31 21.3 °F 18.5 °F 1011.1 in ESE 7.4 mph 7.4 mph 84 % 0.0 in 0.0 W/m2 CLR
01:36 21.4 °F 18.4 °F 1011.1 in Calm     83 % 0.0 in 0.0 W/m2 CLR
01:41 21.4 °F 18.4 °F 1010.7 in Calm     83 % 0.0 in 0.0 W/m2 CLR
01:46 21.4 °F 18.4 °F 1010.7 in Calm     83 % 0.0 in 0.0 W/m2 CLR
01:51 21.3 °F 18.3 °F 1010.7 in Calm     83 % 0.0 in 0.0 W/m2 CLR
01:57 21.1 °F 18.3 °F 1010.7 in Calm     84 % 0.0 in 0.0 W/m2 CLR
02:02 21.1 °F 18.4 °F 1010.7 in Calm     85 % 0.0 in 0.0 W/m2 CLR
02:07 21.1 °F 18.4 °F 1010.7 in Calm     85 % 0.0 in 0.0 W/m2 CLR
02:12 20.9 °F 18.3 °F 1010.7 in Calm     85 % 0.0 in 0.0 W/m2 CLR
02:17 20.8 °F 18.2 °F 1010.7 in Calm     85 % 0.0 in 0.0 W/m2 CLR
02:22 20.7 °F 18.1 °F 1010.7 in Calm     85 % 0.0 in 0.0 W/m2 CLR
02:27 20.6 °F 18.2 °F 1010.7 in Calm     86 % 0.0 in 0.0 W/m2 CLR
02:32 20.5 °F 18.1 °F 1010.7 in Calm     86 % 0.0 in 0.0 W/m2 CLR
02:37 20.4 °F 18.2 °F 1011.1 in Calm     87 % 0.0 in 0.0 W/m2 CLR
02:42 20.4 °F 18.3 °F 1011.1 in Calm     88 % 0.0 in 0.0 W/m2 CLR
02:47 20.4 °F 18.3 °F 1011.1 in Calm     88 % 0.0 in 0.0 W/m2 CLR
02:53 20.3 °F 18.1 °F 1011.1 in Calm     87 % 0.0 in 0.0 W/m2 CLR
02:58 20.2 °F 18.0 °F 1011.1 in Calm     87 % 0.0 in 0.0 W/m2 CLR
03:03 20.1 °F 18.1 °F 1011.1 in Calm     88 % 0.0 in 0.0 W/m2 CLR
03:08 20.1 °F 18.0 °F 1011.1 in Calm     88 % 0.0 in 0.0 W/m2 CLR
03:13 20.0 °F 17.9 °F 1011.1 in Calm     88 % 0.0 in 0.0 W/m2 CLR
03:18 19.9 °F 17.8 °F 1011.1 in Calm     88 % 0.0 in 0.0 W/m2 CLR
03:23 19.8 °F 17.7 °F 1011.1 in Calm     88 % 0.0 in 0.0 W/m2 CLR
03:28 19.7 °F 17.8 °F 1011.1 in Calm     89 % 0.0 in 0.0 W/m2 CLR
03:33 19.6 °F 17.7 °F 1011.4 in Calm     89 % 0.0 in 0.0 W/m2 CLR
03:38 19.5 °F 17.6 °F 1011.4 in Calm     89 % 0.0 in 0.0 W/m2 CLR
03:43 19.5 °F 17.6 °F 1011.4 in Calm     89 % 0.0 in 0.0 W/m2 CLR
03:48 19.4 °F 17.8 °F 1011.4 in Calm     90 % 0.0 in 0.0 W/m2 CLR
03:53 19.4 °F 17.8 °F 1011.4 in Calm     90 % 0.0 in 0.0 W/m2 CLR
03:58 19.3 °F 17.7 °F 1011.4 in Calm     90 % 0.0 in 0.0 W/m2 CLR
04:03 19.3 °F 17.6 °F 1011.4 in Calm     90 % 0.0 in 0.0 W/m2 CLR
04:08 19.1 °F 17.4 °F 1011.4 in Calm     90 % 0.0 in 0.0 W/m2 CLR
04:13 19.1 °F 17.4 °F 1011.4 in West 5.6 mph 5.6 mph 90 % 0.0 in 0.0 W/m2 CLR
04:18 19.1 °F 17.4 °F 1011.7 in West 3.2 mph 3.2 mph 90 % 0.0 in 0.0 W/m2 CLR
04:23 19.1 °F 17.6 °F 1011.7 in WSW 12.9 mph 12.9 mph 91 % 0.0 in 0.0 W/m2 CLR
04:28 19.2 °F 17.5 °F 1011.7 in WSW 13.0 mph 13.0 mph 90 % 0.0 in 0.0 W/m2 CLR
04:33 19.2 °F 17.5 °F 1011.7 in SW 9.7 mph 9.7 mph 90 % 0.0 in 0.0 W/m2 CLR
04:38 19.2 °F 17.5 °F 1011.7 in WSW 9.3 mph 9.3 mph 90 % 0.0 in 0.0 W/m2 CLR
04:43 19.2 °F 17.6 °F 1011.7 in WSW 3.7 mph   90 % 0.0 in 0.0 W/m2 CLR
04:48 19.2 °F 17.3 °F 1011.7 in West 8.0 mph 8.0 mph 89 % 0.0 in 0.0 W/m2 CLR
04:53 19.3 °F 17.4 °F 1011.7 in WSW 11.1 mph 11.1 mph 89 % 0.0 in 0.0 W/m2 CLR
04:58 19.6 °F 17.7 °F 1011.7 in WSW 13.0 mph 13.0 mph 89 % 0.0 in 0.0 W/m2 CLR
05:03 19.7 °F 17.8 °F 1011.7 in WSW 13.0 mph 13.0 mph 89 % 0.0 in 0.0 W/m2 CLR
05:08 19.7 °F 17.8 °F 1011.7 in WSW 13.0 mph 13.0 mph 89 % 0.0 in 0.0 W/m2 CLR
05:13 19.8 °F 17.7 °F 1011.7 in West 11.1 mph 11.1 mph 88 % 0.0 in 0.0 W/m2 CLR
05:18 19.8 °F 17.7 °F 1011.7 in WSW 8.0 mph 8.0 mph 88 % 0.0 in 0.0 W/m2 CLR
05:23 19.7 °F 17.7 °F 1012.1 in WSW 9.3 mph 9.3 mph 88 % 0.0 in 0.0 W/m2 CLR
05:28 19.7 °F 17.8 °F 1012.1 in WSW 13.0 mph 13.0 mph 89 % 0.0 in 0.0 W/m2 CLR
05:29 19.7 °F 17.8 °F 1012.1 in WSW 13.0 mph 13.0 mph 89 % 0.0 in 0.0 W/m2 CLR
05:34 19.7 °F 17.8 °F 1012.1 in West 14.8 mph 14.8 mph 89 % 0.0 in 0.0 W/m2 CLR
05:39 19.8 °F 17.9 °F 1012.1 in WSW 14.5 mph 14.5 mph 89 % 0.0 in 0.0 W/m2 CLR
05:44 19.8 °F 17.8 °F 1012.1 in WSW 16.7 mph 16.7 mph 88 % 0.0 in 0.0 W/m2 CLR
05:49 19.8 °F 17.7 °F 1012.4 in WSW 14.8 mph 14.8 mph 88 % 0.0 in 0.0 W/m2 CLR
05:54 19.8 °F 17.7 °F 1012.4 in WSW 11.1 mph 11.1 mph 88 % 0.0 in 0.0 W/m2 CLR
05:59 19.8 °F 17.8 °F 1012.4 in WSW 9.3 mph 9.3 mph 88 % 0.0 in 0.0 W/m2 CLR
06:04 19.9 °F 17.8 °F 1012.4 in Calm   4.2 mph 88 % 0.0 in 0.0 W/m2 CLR
06:09 19.9 °F 17.9 °F 1012.4 in WSW 8.0 mph 8.0 mph 88 % 0.0 in 0.0 W/m2 CLR
06:14 19.9 °F 17.9 °F 1012.4 in Calm     88 % 0.0 in 0.0 W/m2 CLR
06:19 20.0 °F 17.9 °F 1012.8 in Calm     88 % 0.0 in 0.0 W/m2 CLR
06:24 20.0 °F 17.9 °F 1012.8 in WSW 5.6 mph 5.6 mph 88 % 0.0 in 0.0 W/m2 CLR
06:29 20.0 °F 17.9 °F 1012.8 in West 13.0 mph 13.0 mph 88 % 0.0 in 0.0 W/m2 CLR
06:34 20.1 °F 17.8 °F 1012.8 in WSW 7.4 mph 7.4 mph 87 % 0.0 in 0.0 W/m2 CLR
06:39 20.1 °F 17.8 °F 1012.8 in SW 5.6 mph 5.6 mph 87 % 0.0 in 0.0 W/m2 OVC
06:44 20.1 °F 17.8 °F 1012.8 in WSW 13.0 mph 13.0 mph 87 % 0.0 in 0.0 W/m2 OVC
06:49 20.0 °F 17.6 °F 1012.8 in WSW 7.4 mph 7.4 mph 86 % 0.0 in 5.0 W/m2 OVC
06:54 19.9 °F 17.5 °F 1012.8 in WSW 5.6 mph 5.6 mph 86 % 0.0 in 9.0 W/m2 BKN
06:59 19.8 °F 17.4 °F 1012.8 in West 5.6 mph 5.6 mph 86 % 0.0 in 16.0 W/m2 BKN
07:04 19.8 °F 17.4 °F 1012.8 in Calm     86 % 0.0 in 21.0 W/m2 BKN
07:09 19.7 °F 17.3 °F 1012.8 in Calm     86 % 0.0 in 25.0 W/m2 BKN
07:14 19.7 °F 17.3 °F 1013.1 in Calm     86 % 0.0 in 28.0 W/m2 BKN
07:19 19.6 °F 17.2 °F 1013.1 in Calm     86 % 0.0 in 21.0 W/m2 BKN
07:24 19.6 °F 17.2 °F 1013.1 in Calm     86 % 0.0 in 26.0 W/m2 BKN
07:29 19.6 °F 17.2 °F 1013.1 in Calm     86 % 0.0 in 30.0 W/m2 BKN
07:34 19.6 °F 17.2 °F 1013.1 in Calm     86 % 0.0 in 32.0 W/m2 BKN
07:39 19.5 °F 17.1 °F 1013.1 in Calm     86 % 0.0 in 40.0 W/m2 BKN
07:44 19.6 °F 17.2 °F 1013.1 in Calm     86 % 0.0 in 58.0 W/m2 SCT
07:49 19.6 °F 17.2 °F 1013.1 in Calm     86 % 0.0 in 102.0 W/m2 SCT
07:54 19.6 °F 17.2 °F 1013.4 in Calm     86 % 0.0 in 121.0 W/m2 FEW
07:59 19.7 °F 17.1 °F 1013.4 in Calm     85 % 0.0 in 137.0 W/m2 CLR
08:04 19.9 °F 17.3 °F 1013.4 in Calm     85 % 0.0 in 137.0 W/m2 CLR
08:09 20.1 °F 17.1 °F 1013.4 in Calm     83 % 0.0 in 169.0 W/m2 CLR
08:14 20.4 °F 17.4 °F 1013.4 in Calm     83 % 0.0 in 165.0 W/m2 CLR
08:19 20.6 °F 17.2 °F 1013.4 in Calm     81 % 0.0 in 104.0 W/m2 CLR
08:24 20.8 °F 17.4 °F 1013.4 in Calm     81 % 0.0 in 199.0 W/m2 CLR
08:29 21.1 °F 17.7 °F 1013.8 in Calm     81 % 0.0 in 216.0 W/m2 CLR
08:34 21.3 °F 17.7 °F 1013.4 in Calm     80 % 0.0 in 234.0 W/m2 CLR
08:39 21.5 °F 17.5 °F 1013.4 in Calm     78 % 0.0 in 248.0 W/m2 CLR
08:44 21.6 °F 17.8 °F 1013.8 in Calm     79 % 0.0 in 262.0 W/m2 CLR
08:49 21.8 °F 17.8 °F 1013.8 in Calm   0.2 mph 78 % 0.0 in 283.0 W/m2 CLR
08:54 21.9 °F 17.7 °F 1013.8 in Calm     77 % 0.0 in 299.0 W/m2 CLR
08:59 22.1 °F 17.9 °F 1013.8 in Calm     77 % 0.0 in 311.0 W/m2 CLR
09:04 22.4 °F 17.9 °F 1013.8 in Calm     76 % 0.0 in 332.0 W/m2 CLR
09:09 22.4 °F 17.8 °F 1013.8 in Calm     75 % 0.0 in 353.0 W/m2 CLR
09:14 22.4 °F 17.8 °F 1013.8 in Calm     75 % 0.0 in 374.0 W/m2 CLR
09:19 22.6 °F 17.9 °F 1013.8 in Calm     75 % 0.0 in 394.0 W/m2 CLR
09:24 22.8 °F 18.2 °F 1013.8 in Calm     75 % 0.0 in 415.0 W/m2 CLR
09:29 23.1 °F 17.9 °F 1013.8 in Calm     73 % 0.0 in 439.0 W/m2 CLR
09:34 23.2 °F 17.9 °F 1013.8 in Calm     72 % 0.0 in 466.0 W/m2 CLR
09:39 23.5 °F 18.4 °F 1013.8 in Calm     73 % 0.0 in 497.0 W/m2 CLR
09:44 23.7 °F 18.1 °F 1013.8 in Calm     71 % 0.0 in 513.0 W/m2 CLR
09:49 23.9 °F 18.3 °F 1013.8 in Calm     71 % 0.0 in 536.0 W/m2 CLR
09:54 24.2 °F 18.6 °F 1013.8 in Calm     71 % 0.0 in 543.0 W/m2 CLR
09:59 24.4 °F 18.6 °F 1013.8 in Calm     70 % 0.0 in 563.0 W/m2 CLR
10:04 24.6 °F 18.6 °F 1013.8 in NNW 1.9 mph   69 % 0.0 in 578.0 W/m2 CLR
10:09 24.6 °F 18.5 °F 1013.8 in Calm     69 % 0.0 in 615.0 W/m2 CLR
10:14 24.7 °F 18.6 °F 1013.8 in Calm     69 % 0.0 in 575.0 W/m2 CLR
10:19 25.1 °F 18.6 °F 1013.8 in NNE 1.9 mph   67 % 0.0 in 599.0 W/m2 CLR
10:24 25.3 °F 18.9 °F 1013.8 in NE 1.9 mph 1.9 mph 68 % 0.0 in 490.0 W/m2 CLR
10:29 25.4 °F 18.9 °F 1013.8 in ENE 5.6 mph 5.6 mph 67 % 0.0 in 638.0 W/m2 CLR
10:34 25.6 °F 18.8 °F 1013.8 in ENE 1.9 mph 1.9 mph 66 % 0.0 in 471.0 W/m2 CLR
10:39 25.3 °F 18.5 °F 1013.8 in Calm     66 % 0.0 in 798.0 W/m2 CLR
10:44 25.2 °F 18.6 °F 1013.4 in ENE 9.3 mph 9.3 mph 67 % 0.0 in 733.0 W/m2 CLR
10:49 25.1 °F 18.8 °F 1013.8 in NNE 1.9 mph   68 % 0.0 in 677.0 W/m2 CLR
10:55 25.3 °F 18.7 °F 1013.4 in ENE 3.7 mph   67 % 0.0 in 374.0 W/m2 CLR
11:00 25.5 °F 18.9 °F 1013.4 in NE 5.6 mph   67 % 0.0 in 715.0 W/m2 CLR
11:05 25.8 °F 18.8 °F 1013.4 in NNE 1.9 mph   65 % 0.0 in 411.0 W/m2 CLR
11:10 25.8 °F 18.7 °F 1013.4 in NE 9.3 mph 9.3 mph 65 % 0.0 in 264.0 W/m2 CLR
11:15 25.6 °F 18.5 °F 1013.8 in Calm     65 % 0.0 in 221.0 W/m2 CLR
11:20 25.4 °F 18.6 °F 1013.8 in Calm     66 % 0.0 in 234.0 W/m2 CLR
11:25 25.3 °F 19.0 °F 1013.4 in NE 4.8 mph 4.8 mph 68 % 0.0 in 329.0 W/m2 CLR
11:30 25.6 °F 18.8 °F 1013.4 in ENE 3.7 mph   66 % 0.0 in 809.0 W/m2 CLR
11:35 25.6 °F 18.8 °F 1013.8 in East 3.7 mph   66 % 0.0 in 371.0 W/m2 CLR
11:40 25.6 °F 18.8 °F 1013.8 in NE 11.3 mph 11.3 mph 66 % 0.0 in 239.0 W/m2 CLR
11:45 25.7 °F 19.1 °F 1013.8 in ENE 13.0 mph 13.0 mph 67 % 0.0 in 788.0 W/m2 CLR
11:50 26.1 °F 18.9 °F 1013.8 in NE 9.3 mph 9.3 mph 65 % 0.0 in 775.0 W/m2 CLR
11:55 26.3 °F 18.7 °F 1013.8 in NE 7.4 mph 7.4 mph 63 % 0.0 in 779.0 W/m2 CLR
12:00 26.6 °F 18.9 °F 1013.8 in ENE 14.8 mph 14.8 mph 63 % 0.0 in 789.0 W/m2 CLR
12:05 26.8 °F 19.2 °F 1013.4 in NNE 9.3 mph 9.3 mph 63 % 0.0 in 789.0 W/m2 CLR
12:10 26.9 °F 19.1 °F 1013.4 in NNE 9.3 mph   62 % 0.0 in 805.0 W/m2 CLR
12:15 27.2 °F 18.7 °F 1013.4 in East 14.8 mph 14.8 mph 60 % 0.0 in 812.0 W/m2 CLR
12:20 27.2 °F 19.1 °F 1013.4 in East 13.0 mph 13.0 mph 61 % 0.0 in 816.0 W/m2 CLR
12:25 27.3 °F 18.9 °F 1013.4 in ESE 14.8 mph 14.8 mph 60 % 0.0 in 821.0 W/m2 CLR
12:30 27.7 °F 19.2 °F 1013.4 in East 7.4 mph 7.4 mph 60 % 0.0 in 826.0 W/m2 CLR
12:35 27.8 °F 19.1 °F 1013.4 in Calm     59 % 0.0 in 831.0 W/m2 CLR
12:40 28.2 °F 19.4 °F 1013.4 in SE 9.7 mph 9.7 mph 59 % 0.0 in 837.0 W/m2 CLR
12:45 28.2 °F 19.1 °F 1013.4 in ENE 7.4 mph 7.4 mph 58 % 0.0 in 840.0 W/m2 CLR
12:50 28.3 °F 19.8 °F 1013.1 in ENE 5.6 mph 5.6 mph 60 % 0.0 in 847.0 W/m2 CLR
12:55 28.7 °F 19.7 °F 1013.1 in ESE 13.0 mph 13.0 mph 58 % 0.0 in 854.0 W/m2 CLR
13:00 28.7 °F 19.3 °F 1013.1 in SE 7.4 mph 7.4 mph 57 % 0.0 in 863.0 W/m2 CLR
13:05 28.9 °F 19.8 °F 1013.1 in East 8.0 mph 8.0 mph 58 % 0.0 in 867.0 W/m2 CLR
13:10 28.9 °F 19.8 °F 1013.1 in ENE 14.5 mph 14.5 mph 58 % 0.0 in 867.0 W/m2 CLR
13:15 28.9 °F 20.1 °F 1012.8 in SE 11.1 mph 11.1 mph 59 % 0.0 in 877.0 W/m2 CLR
13:20 29.1 °F 20.0 °F 1012.8 in East 5.6 mph 5.6 mph 58 % 0.0 in 882.0 W/m2 CLR
13:25 29.3 °F 19.7 °F 1012.8 in ENE 5.6 mph 5.6 mph 56 % 0.0 in 879.0 W/m2 CLR
13:30 29.6 °F 20.2 °F 1012.4 in ENE 9.3 mph 9.3 mph 57 % 0.0 in 886.0 W/m2 CLR
13:35 29.9 °F 20.2 °F 1012.4 in SE 8.0 mph 8.0 mph 56 % 0.0 in 911.0 W/m2 CLR
13:40 30.2 °F 20.1 °F 1012.4 in ESE 13.0 mph 13.0 mph 55 % 0.0 in 905.0 W/m2 CLR
13:45 30.1 °F 20.0 °F 1012.4 in SE 7.4 mph 7.4 mph 55 % 0.0 in 905.0 W/m2 CLR
13:50 30.2 °F 20.2 °F 1012.4 in ENE 9.3 mph 9.3 mph 55 % 0.0 in 916.0 W/m2 CLR
13:55 30.6 °F 20.2 °F 1012.4 in ESE 5.6 mph 5.6 mph 54 % 0.0 in 933.0 W/m2 CLR
14:00 30.8 °F 19.8 °F 1012.1 in ESE 17.7 mph 17.7 mph 52 % 0.0 in 926.0 W/m2 CLR
14:05 30.9 °F 20.6 °F 1012.1 in ENE 4.8 mph 4.8 mph 54 % 0.0 in 958.0 W/m2 CLR
14:10 31.1 °F 19.7 °F 1012.1 in ESE 16.7 mph 16.7 mph 51 % 0.0 in 958.0 W/m2 CLR
14:15 30.8 °F 19.8 °F 1012.1 in SSW 1.9 mph   52 % 0.0 in 302.0 W/m2 CLR
14:20 30.8 °F 19.8 °F 1011.7 in NE 14.8 mph 14.8 mph 52 % 0.0 in 299.0 W/m2 CLR
14:25 30.6 °F 19.6 °F 1012.1 in ENE 18.5 mph 18.5 mph 52 % 0.0 in 250.0 W/m2 CLR
14:30 30.5 °F 19.8 °F 1011.7 in ESE 18.5 mph 18.5 mph 53 % 0.0 in 385.0 W/m2 CLR
14:35 30.6 °F 19.9 °F 1011.7 in ESE 22.5 mph 22.5 mph 53 % 0.0 in 1046.0 W/m2 CLR
14:40 30.9 °F 20.2 °F 1011.7 in ESE 24.1 mph 24.1 mph 53 % 0.0 in 997.0 W/m2 CLR
14:46 30.6 °F 19.9 °F 1011.7 in ESE 25.9 mph 25.9 mph 53 % 0.0 in 295.0 W/m2 CLR
14:51 30.3 °F 20.0 °F 1011.4 in ENE 24.1 mph 24.1 mph 54 % 0.0 in 322.0 W/m2 CLR
14:56 30.2 °F 20.2 °F 1011.4 in ESE 24.1 mph 24.1 mph 55 % 0.0 in 327.0 W/m2 CLR
15:01 30.2 °F 20.1 °F 1011.4 in East 9.3 mph 9.3 mph 55 % 0.0 in 297.0 W/m2 CLR
15:06 30.4 °F 20.1 °F 1011.4 in ESE 14.8 mph 14.8 mph 54 % 0.0 in 332.0 W/m2 CLR
15:11 30.4 °F 19.8 °F 1011.4 in East 18.5 mph 18.5 mph 53 % 0.0 in 258.0 W/m2 CLR
15:16 30.4 °F 19.7 °F 1011.4 in East 33.3 mph 33.3 mph 53 % 0.0 in 202.0 W/m2 CLR
15:21 30.4 °F 19.4 °F 1011.4 in SE 7.4 mph 7.4 mph 52 % 0.0 in 202.0 W/m2 CLR
15:26 30.5 °F 19.6 °F 1011.1 in ESE 25.9 mph 25.9 mph 52 % 0.0 in 178.0 W/m2 CLR
15:31 30.2 °F 19.8 °F 1011.1 in SSE 31.5 mph 31.5 mph 54 % 0.0 in 114.0 W/m2 CLR
15:36 29.8 °F 20.1 °F 1011.1 in East 29.6 mph 29.6 mph 56 % 0.0 in 165.0 W/m2 CLR
15:41 29.7 °F 20.2 °F 1011.1 in ESE 31.5 mph 31.5 mph 57 % 0.0 in 125.0 W/m2 CLR
15:46 29.4 °F 20.3 °F 1011.1 in ESE 25.9 mph 25.9 mph 58 % 0.0 in 153.0 W/m2 CLR
15:51 29.3 °F 20.2 °F 1010.7 in ESE 24.1 mph 24.1 mph 58 % 0.0 in 258.0 W/m2 CLR
15:56 29.3 °F 20.2 °F 1011.1 in ESE 22.2 mph 22.2 mph 58 % 0.0 in 69.0 W/m2 CLR
16:01 29.2 °F 20.1 °F 1011.4 in ESE 19.3 mph 19.3 mph 58 % 0.0 in 46.0 W/m2 FEW
16:06 28.9 °F 20.9 °F 1011.4 in ESE 19.3 mph 19.3 mph 62 % 0.3 in 47.0 W/m2 RA
16:11 28.1 °F 21.4 °F 1011.7 in East 11.1 mph 11.1 mph 67 % 0.5 in 56.0 W/m2 RA
16:16 27.4 °F 21.2 °F 1011.7 in Calm     69 % 0.8 in 76.0 W/m2 RA
16:21 26.8 °F 21.1 °F 1011.7 in Calm     71 % 0.8 in 77.0 W/m2 FEW
16:26 26.6 °F 21.6 °F 1011.4 in ESE 5.6 mph 5.6 mph 74 % 1.3 in 163.0 W/m2 RA
16:31 26.3 °F 21.3 °F 1011.4 in ESE 14.8 mph 14.8 mph 74 % 1.3 in 241.0 W/m2 CLR
16:36 26.4 °F 21.7 °F 1011.4 in East 11.1 mph 11.1 mph 75 % 1.3 in 728.0 W/m2 CLR
16:41 26.7 °F 21.5 °F 1011.1 in SE 18.5 mph 18.5 mph 73 % 1.3 in 214.0 W/m2 CLR
16:46 26.9 °F 21.7 °F 1011.4 in South 19.3 mph 19.3 mph 73 % 1.3 in 744.0 W/m2 CLR
16:51 27.2 °F 21.5 °F 1011.4 in SE 24.1 mph 24.1 mph 71 % 1.3 in 773.0 W/m2 CLR
16:56 27.4 °F 21.7 °F 1011.4 in SE 18.5 mph 18.5 mph 71 % 1.3 in 740.0 W/m2 CLR
17:01 27.4 °F 21.4 °F 1011.4 in SE 27.8 mph 27.8 mph 70 % 1.3 in 698.0 W/m2 CLR
17:06 27.7 °F 21.9 °F 1011.4 in SE 14.8 mph 14.8 mph 71 % 1.0 in 675.0 W/m2 CLR
17:11 27.8 °F 21.6 °F 1011.1 in SE 20.4 mph 20.4 mph 69 % 0.8 in 661.0 W/m2 CLR
17:16 27.9 °F 21.5 °F 1011.1 in SE 20.9 mph 20.9 mph 68 % 0.5 in 638.0 W/m2 CLR
17:21 28.0 °F 21.6 °F 1011.1 in ESE 33.3 mph 33.3 mph 68 % 0.5 in 622.0 W/m2 CLR
17:26 28.0 °F 21.6 °F 1011.1 in ESE 20.4 mph 20.4 mph 68 % 0.0 in 621.0 W/m2 CLR
17:31 28.1 °F 21.7 °F 1011.1 in ESE 24.1 mph 24.1 mph 68 % 0.0 in 621.0 W/m2 CLR
17:36 28.2 °F 21.7 °F 1010.7 in ESE 20.4 mph 20.4 mph 68 % 0.0 in 617.0 W/m2 CLR
17:41 28.3 °F 22.1 °F 1010.7 in SSE 14.8 mph 14.8 mph 69 % 0.0 in 578.0 W/m2 CLR
17:46 28.4 °F 21.9 °F 1010.7 in ESE 18.5 mph 18.5 mph 68 % 0.0 in 643.0 W/m2 CLR
17:51 28.8 °F 22.5 °F 1010.7 in ESE 13.0 mph 13.0 mph 69 % 0.0 in 603.0 W/m2 CLR
17:56 28.8 °F 22.3 °F 1011.1 in ENE 13.0 mph 13.0 mph 68 % 0.0 in 155.0 W/m2 CLR
18:01 28.8 °F 22.5 °F 1011.4 in Calm     69 % 0.0 in 241.0 W/m2 CLR
18:06 29.1 °F 22.6 °F 1011.1 in East 22.5 mph 22.5 mph 68 % 0.0 in 570.0 W/m2 CLR
18:11 29.0 °F 22.5 °F 1011.1 in East 18.5 mph 18.5 mph 68 % 0.0 in 469.0 W/m2 CLR
18:16 29.0 °F 21.8 °F 1010.7 in SE 20.4 mph 20.4 mph 65 % 0.0 in 482.0 W/m2 CLR
18:21 28.8 °F 21.3 °F 1010.7 in ESE 24.1 mph 24.1 mph 64 % 0.0 in 466.0 W/m2 CLR
18:26 28.8 °F 21.3 °F 1011.1 in ESE 24.1 mph 24.1 mph 64 % 0.0 in 445.0 W/m2 CLR
18:31 28.9 °F 21.4 °F 1010.7 in ESE 18.5 mph 18.5 mph 64 % 0.0 in 431.0 W/m2 CLR
18:36 28.8 °F 21.3 °F 1011.1 in ESE 22.2 mph 22.2 mph 64 % 0.0 in 338.0 W/m2 CLR
18:41 28.7 °F 21.7 °F 1011.1 in ESE 17.7 mph 17.7 mph 66 % 0.0 in 362.0 W/m2 CLR
18:46 28.7 °F 21.4 °F 1011.1 in SE 24.1 mph 24.1 mph 65 % 0.0 in 380.0 W/m2 CLR
18:51 28.6 °F 21.4 °F 1011.1 in SE 22.2 mph 22.2 mph 65 % 0.0 in 353.0 W/m2 CLR
18:56 28.8 °F 21.6 °F 1011.1 in ESE 17.7 mph 17.7 mph 65 % 0.0 in 338.0 W/m2 CLR
19:01 29.0 °F 21.5 °F 1011.1 in SSE 16.7 mph 16.7 mph 64 % 0.0 in 283.0 W/m2 CLR
19:06 29.1 °F 21.3 °F 1011.1 in SE 18.5 mph 18.5 mph 63 % 0.0 in 315.0 W/m2 CLR
19:11 29.2 °F 21.4 °F 1011.1 in SE 18.5 mph 18.5 mph 63 % 0.0 in 297.0 W/m2 CLR
19:16 29.2 °F 21.4 °F 1011.1 in SE 16.7 mph 16.7 mph 63 % 0.0 in 276.0 W/m2 CLR
19:21 29.1 °F 21.3 °F 1011.1 in SE 20.4 mph 20.4 mph 63 % 0.0 in 265.0 W/m2 CLR
19:26 28.7 °F 21.2 °F 1011.1 in SE 18.5 mph 18.5 mph 64 % 0.0 in 250.0 W/m2 CLR
19:31 28.7 °F 21.2 °F 1011.1 in SSE 25.9 mph 25.9 mph 64 % 0.0 in 239.0 W/m2 CLR
19:36 28.7 °F 21.2 °F 1011.1 in SE 18.5 mph 18.5 mph 64 % 0.0 in 225.0 W/m2 CLR
19:41 28.8 °F 21.3 °F 1011.1 in SSE 13.0 mph 13.0 mph 64 % 0.0 in 214.0 W/m2 CLR
19:46 28.8 °F 21.3 °F 1011.1 in SE 16.7 mph 16.7 mph 64 % 0.0 in 197.0 W/m2 CLR
19:51 28.8 °F 21.3 °F 1011.4 in SE 9.3 mph 9.3 mph 64 % 0.0 in 174.0 W/m2 CLR
19:56 28.8 °F 21.3 °F 1011.4 in SE 14.5 mph 14.5 mph 64 % 0.0 in 158.0 W/m2 CLR
20:01 28.7 °F 21.0 °F 1011.4 in SE 18.5 mph 18.5 mph 63 % 0.0 in 142.0 W/m2 CLR
20:06 28.6 °F 20.9 °F 1011.4 in ESE 18.5 mph 18.5 mph 63 % 0.0 in 127.0 W/m2 CLR
20:11 28.5 °F 21.0 °F 1011.4 in SE 13.0 mph 13.0 mph 64 % 0.0 in 111.0 W/m2 CLR
20:16 28.4 °F 21.0 °F 1011.4 in ESE 14.5 mph 14.5 mph 64 % 0.0 in 98.0 W/m2 CLR
20:21 28.4 °F 20.9 °F 1011.4 in ESE 16.1 mph 16.1 mph 64 % 0.0 in 88.0 W/m2 CLR
20:26 28.3 °F 20.9 °F 1011.7 in SE 17.7 mph 17.7 mph 64 % 0.0 in 77.0 W/m2 FEW
20:31 28.3 °F 20.8 °F 1011.7 in SE 13.0 mph 13.0 mph 64 % 0.0 in 67.0 W/m2 FEW
20:36 28.2 °F 21.0 °F 1011.7 in SSE 14.8 mph 14.8 mph 65 % 0.0 in 56.0 W/m2 SCT
20:41 28.1 °F 20.9 °F 1011.7 in SSE 5.6 mph 5.6 mph 65 % 0.0 in 47.0 W/m2 SCT
20:46 28.0 °F 20.8 °F 1011.7 in SE 11.1 mph 11.1 mph 65 % 0.0 in 40.0 W/m2 BKN
20:51 27.9 °F 21.0 °F 1012.1 in Calm     66 % 0.0 in 35.0 W/m2 BKN
20:57 27.9 °F 20.9 °F 1012.1 in Calm     66 % 0.0 in 26.0 W/m2 BKN
21:02 27.8 °F 20.9 °F 1012.1 in SE 1.9 mph   66 % 0.0 in 21.0 W/m2 BKN
21:07 27.7 °F 21.0 °F 1012.1 in Calm     67 % 0.0 in 18.0 W/m2 BKN
21:12 27.6 °F 21.2 °F 1012.1 in ESE 5.6 mph   68 % 0.0 in 14.0 W/m2 BKN
21:17 27.4 °F 21.2 °F 1012.1 in Calm     69 % 0.0 in 9.0 W/m2 BKN
21:22 27.3 °F 21.1 °F 1012.4 in SE 3.2 mph 3.2 mph 69 % 0.0 in 5.0 W/m2 BKN
21:27 27.1 °F 21.2 °F 1012.4 in Calm     70 % 0.0 in 0.0 W/m2 OVC
21:32 27.0 °F 21.3 °F 1012.4 in Calm     71 % 0.0 in 0.0 W/m2 OVC
21:37 26.8 °F 21.3 °F 1012.8 in East 3.2 mph 3.2 mph 72 % 0.0 in 0.0 W/m2 CLR
21:42 26.4 °F 21.2 °F 1012.8 in SE 4.8 mph 4.8 mph 73 % 0.0 in 0.0 W/m2 CLR
21:47 26.3 °F 21.3 °F 1013.1 in SE 9.3 mph 9.3 mph 74 % 0.0 in 0.0 W/m2 CLR
21:52 26.1 °F 21.3 °F 1013.1 in SE 5.6 mph 5.6 mph 75 % 0.0 in 0.0 W/m2 CLR
21:57 26.0 °F 21.2 °F 1013.1 in SE 9.3 mph 9.3 mph 75 % 0.0 in 0.0 W/m2 CLR
22:02 25.9 °F 21.2 °F 1013.1 in SE 3.7 mph   75 % 0.0 in 0.0 W/m2 CLR
22:07 25.8 °F 21.3 °F 1013.1 in ESE 9.7 mph 9.7 mph 76 % 0.0 in 0.0 W/m2 CLR
22:12 25.7 °F 21.1 °F 1013.1 in ESE 7.4 mph 7.4 mph 76 % 0.0 in 0.0 W/m2 CLR
22:17 25.5 °F 21.2 °F 1013.4 in Calm     77 % 0.0 in 0.0 W/m2 CLR
22:22 25.3 °F 21.2 °F 1013.4 in ESE 9.3 mph 9.3 mph 78 % 0.0 in 0.0 W/m2 CLR
22:27 25.2 °F 21.1 °F 1013.4 in Calm     78 % 0.0 in 0.0 W/m2 CLR
22:32 25.1 °F 21.2 °F 1013.4 in Calm     79 % 0.0 in 0.0 W/m2 CLR
22:37 25.1 °F 21.2 °F 1013.8 in Calm     79 % 0.0 in 0.0 W/m2 CLR
22:42 25.0 °F 21.1 °F 1013.8 in Calm     79 % 0.0 in 0.0 W/m2 CLR
22:47 24.9 °F 21.1 °F 1013.8 in Calm     79 % 0.0 in 0.0 W/m2 CLR
22:52 24.8 °F 20.9 °F 1013.8 in Calm     79 % 0.0 in 0.0 W/m2 CLR
22:57 24.8 °F 21.1 °F 1013.8 in Calm     80 % 0.0 in 0.0 W/m2 CLR
23:02 24.7 °F 21.1 °F 1013.8 in Calm     80 % 0.0 in 0.0 W/m2 CLR
23:07 24.6 °F 20.9 °F 1013.8 in Calm     80 % 0.0 in 0.0 W/m2 CLR
23:12 24.6 °F 20.7 °F 1014.1 in Calm     79 % 0.0 in 0.0 W/m2 CLR
23:17 24.7 °F 20.8 °F 1014.1 in Calm     79 % 0.0 in 0.0 W/m2 CLR
23:22 24.7 °F 20.6 °F 1014.1 in Calm     78 % 0.0 in 0.0 W/m2 CLR
23:27 24.8 °F 20.4 °F 1014.1 in Calm     77 % 0.0 in 0.0 W/m2 CLR
23:32 24.8 °F 20.5 °F 1014.1 in Calm     77 % 0.0 in 0.0 W/m2 CLR
23:37 24.8 °F 20.4 °F 1014.1 in Calm     77 % 0.0 in 0.0 W/m2 CLR
23:42 24.7 °F 20.4 °F 1014.1 in Calm     77 % 0.0 in 0.0 W/m2 CLR
23:47 24.7 °F 20.4 °F 1014.1 in Calm     77 % 0.0 in 0.0 W/m2 CLR
23:52 24.7 °F 20.4 °F 1014.1 in Calm     77 % 0.0 in 0.0 W/m2 CLR
23:57 24.7 °F 20.4 °F 1014.1 in Calm     77 % 0.0 in 0.0 W/m2 CLR
Lo Temps de Massalio
Compliments of Weather Underground - 1.25 mb